createdAt,value
2023-01-19T00:02:25.868Z,10.10
2023-01-19T00:05:28.167Z,11.55
2023-01-19T00:08:31.918Z,8.60
2023-01-19T00:11:34.233Z,10.57
2023-01-19T00:14:36.553Z,8.98
2023-01-19T00:17:40.979Z,6.63
2023-01-19T00:20:45.541Z,11.75
2023-01-19T00:23:51.116Z,9.45
2023-01-19T00:26:53.444Z,8.45
2023-01-19T00:29:55.703Z,11.10
2023-01-19T00:32:58.754Z,11.25
2023-01-19T00:36:01.561Z,12.73
2023-01-19T00:39:05.716Z,9.15
2023-01-19T00:42:27.172Z,16.55
2023-01-19T00:45:29.513Z,7.43
2023-01-19T00:48:31.823Z,8.65
2023-01-19T00:51:34.124Z,8.57
2023-01-19T00:54:37.763Z,7.78
2023-01-19T00:57:40.461Z,11.18
2023-01-19T01:00:42.775Z,9.32
2023-01-19T01:03:45.073Z,6.88
2023-01-19T01:06:47.415Z,10.93
2023-01-19T01:09:51.199Z,5.90
2023-01-19T01:12:57.488Z,5.60
2023-01-19T01:16:00.376Z,4.38
2023-01-19T01:19:02.704Z,5.97
2023-01-19T01:22:05.774Z,3.95
2023-01-19T01:25:09.877Z,3.67
2023-01-19T01:28:12.106Z,3.55
2023-01-19T01:31:14.450Z,4.43
2023-01-19T01:34:17.356Z,5.68
2023-01-19T01:37:19.617Z,4.72
2023-01-19T01:40:23.295Z,5.95
2023-01-19T01:43:42.700Z,5.20
2023-01-19T01:46:44.923Z,5.65
2023-01-19T01:49:47.926Z,4.28
2023-01-19T01:53:07.076Z,4.93
2023-01-19T01:56:14.103Z,3.72
2023-01-19T01:59:25.722Z,5.57
2023-01-19T02:02:47.082Z,5.53
2023-01-19T02:05:49.403Z,3.77
2023-01-19T02:09:13.364Z,4.28
2023-01-19T02:12:35.312Z,4.63
2023-01-19T02:15:37.527Z,4.47
2023-01-19T02:18:40.365Z,7.82
2023-01-19T02:21:49.301Z,6.80
2023-01-19T02:24:53.851Z,4.40
2023-01-19T02:27:56.737Z,6.40
2023-01-19T02:30:59.041Z,5.95
2023-01-19T02:34:01.983Z,5.45
2023-01-19T02:37:07.910Z,4.45
2023-01-19T02:40:15.375Z,8.88
2023-01-19T02:43:18.259Z,3.78
2023-01-19T02:46:20.635Z,6.45
2023-01-19T02:49:23.149Z,9.25
2023-01-19T02:52:29.106Z,7.53
2023-01-19T02:55:32.868Z,5.88
2023-01-19T02:58:41.619Z,9.30
2023-01-19T03:01:54.168Z,7.18
2023-01-19T03:05:17.533Z,4.55
2023-01-19T03:08:27.137Z,8.32
2023-01-19T03:11:35.196Z,6.68
2023-01-19T03:14:40.908Z,5.47
2023-01-19T03:17:44.910Z,8.55
2023-01-19T03:20:48.399Z,9.45
2023-01-19T03:23:51.410Z,5.32
2023-01-19T03:26:58.850Z,10.02
2023-01-19T03:30:05.432Z,8.68
2023-01-19T03:33:12.261Z,6.85
2023-01-19T03:36:18.336Z,9.70
2023-01-19T03:39:22.961Z,7.03
2023-01-19T03:42:27.447Z,7.43
2023-01-19T03:45:31.331Z,5.10
2023-01-19T03:48:33.960Z,6.90
2023-01-19T03:51:37.453Z,7.43
2023-01-19T03:54:40.962Z,6.75
2023-01-19T03:57:45.260Z,6.55
2023-01-19T04:00:47.566Z,9.25
2023-01-19T04:03:50.564Z,5.18
2023-01-19T04:06:52.851Z,6.18
2023-01-19T04:09:55.090Z,6.25
2023-01-19T04:12:59.889Z,9.23
2023-01-19T04:16:03.930Z,4.10
2023-01-19T04:19:06.327Z,7.25
2023-01-19T04:22:08.571Z,6.40
2023-01-19T04:25:10.942Z,7.43
2023-01-19T04:28:15.419Z,5.47
2023-01-19T04:31:19.312Z,6.00
2023-01-19T04:34:21.709Z,8.40
2023-01-19T04:37:23.948Z,6.57
2023-01-19T04:40:26.317Z,10.57
2023-01-19T04:43:30.180Z,7.25
2023-01-19T04:46:32.718Z,4.25
2023-01-19T04:49:37.667Z,4.47
2023-01-19T04:52:40.016Z,5.40
2023-01-19T04:55:42.432Z,4.43
2023-01-19T04:58:46.098Z,5.50
2023-01-19T05:01:48.456Z,10.65
2023-01-19T05:04:51.432Z,5.97
2023-01-19T05:07:53.716Z,4.05
2023-01-19T05:10:57.528Z,4.07
2023-01-19T05:14:01.589Z,7.15
2023-01-19T05:17:03.841Z,4.68
2023-01-19T05:20:07.479Z,4.78
2023-01-19T05:23:09.695Z,5.25
2023-01-19T05:26:13.949Z,7.78
2023-01-19T05:29:17.609Z,3.40
2023-01-19T05:32:19.859Z,5.60
2023-01-19T05:35:31.317Z,5.28
2023-01-19T05:38:37.402Z,9.88
2023-01-19T05:41:39.843Z,8.50
2023-01-19T05:44:43.523Z,5.68
2023-01-19T05:47:47.108Z,7.30
2023-01-19T05:50:49.719Z,5.50
2023-01-19T05:53:52.553Z,5.60
2023-01-19T05:56:54.796Z,7.60
2023-01-19T05:59:58.505Z,8.05
2023-01-19T06:03:02.533Z,8.98
2023-01-19T06:06:05.492Z,11.82
2023-01-19T06:09:08.330Z,12.98
2023-01-19T06:12:10.669Z,12.57
2023-01-19T06:15:15.455Z,19.40
2023-01-19T06:18:17.875Z,18.48
2023-01-19T06:21:20.136Z,18.75
2023-01-19T06:24:23.162Z,20.70
2023-01-19T06:27:25.753Z,22.15
2023-01-19T06:30:29.422Z,22.13
2023-01-19T06:33:31.882Z,20.20
2023-01-19T06:36:34.216Z,15.30
2023-01-19T06:39:37.990Z,15.95
2023-01-19T06:42:40.327Z,14.50
2023-01-19T06:45:45.241Z,13.05
2023-01-19T06:48:48.303Z,9.80
2023-01-19T06:51:50.850Z,12.65
2023-01-19T06:54:53.184Z,13.55
2023-01-19T06:57:58.485Z,13.23
2023-01-19T07:01:03.636Z,11.20
2023-01-19T07:04:06.108Z,13.95
2023-01-19T07:07:08.679Z,10.90
2023-01-19T07:10:16.377Z,13.80
2023-01-19T07:13:18.826Z,11.02
2023-01-19T07:16:23.121Z,15.45
2023-01-19T07:19:25.459Z,11.70
2023-01-19T07:22:28.122Z,16.70
2023-01-19T07:25:30.832Z,14.68
2023-01-19T07:28:33.238Z,12.45
2023-01-19T07:31:36.968Z,13.57
2023-01-19T07:34:39.354Z,15.88
2023-01-19T07:37:41.648Z,16.63
2023-01-19T07:40:44.077Z,16.20
2023-01-19T07:43:46.364Z,17.20
2023-01-19T07:46:51.147Z,16.55
2023-01-19T07:49:53.448Z,15.60
2023-01-19T07:52:56.097Z,17.67
2023-01-19T07:55:59.202Z,15.38
2023-01-19T07:59:01.540Z,20.33
2023-01-19T08:02:05.608Z,16.02
2023-01-19T08:05:08.851Z,19.58
2023-01-19T08:08:12.569Z,19.90
2023-01-19T08:11:15.305Z,20.45
2023-01-19T08:14:17.750Z,20.73
2023-01-19T08:17:21.465Z,19.15
2023-01-19T08:20:24.259Z,16.80
2023-01-19T08:23:28.091Z,18.77
2023-01-19T08:26:32.038Z,21.48
2023-01-19T08:29:34.365Z,20.75
2023-01-19T08:32:38.105Z,20.67
2023-01-19T08:35:42.820Z,19.15
2023-01-19T08:38:45.492Z,19.55
2023-01-19T08:41:47.776Z,19.00
2023-01-19T08:44:58.122Z,18.00
2023-01-19T08:48:02.125Z,16.92
2023-01-19T08:51:04.588Z,16.33
2023-01-19T08:54:06.805Z,18.88
2023-01-19T08:57:09.035Z,17.45
2023-01-19T09:00:12.595Z,15.85
2023-01-19T09:03:16.237Z,20.20
2023-01-19T09:06:19.283Z,16.20
2023-01-19T09:09:21.562Z,15.13
2023-01-19T09:12:23.832Z,20.85
2023-01-19T09:15:26.174Z,15.70
2023-01-19T09:18:30.025Z,18.67
2023-01-19T09:21:32.347Z,17.15
2023-01-19T09:24:35.042Z,22.88
2023-01-19T09:27:37.655Z,21.90
2023-01-19T09:30:41.085Z,20.65
2023-01-19T09:33:44.934Z,20.30
2023-01-19T09:36:47.414Z,23.63
2023-01-19T09:39:49.836Z,22.08
2023-01-19T09:42:56.724Z,20.50
2023-01-19T09:46:00.832Z,18.48
2023-01-19T09:49:07.005Z,20.17
2023-01-19T09:52:11.029Z,22.33
2023-01-19T09:55:20.237Z,22.67
2023-01-19T09:58:22.930Z,23.23
2023-01-19T10:01:45.076Z,24.92
2023-01-19T10:04:55.231Z,24.48
2023-01-19T10:08:08.426Z,23.15
2023-01-19T10:11:19.019Z,26.38
2023-01-19T10:14:27.741Z,25.35
2023-01-19T10:17:38.710Z,26.77
2023-01-19T10:20:45.212Z,33.27
2023-01-19T10:23:50.567Z,28.27
2023-01-19T10:26:54.865Z,27.35
2023-01-19T10:29:57.360Z,31.85
2023-01-19T10:32:59.916Z,30.98
2023-01-19T10:36:06.151Z,40.35
2023-01-19T10:39:11.721Z,27.30
2023-01-19T10:42:16.019Z,30.20
2023-01-19T10:45:21.092Z,27.13
2023-01-19T10:48:24.008Z,27.90
2023-01-19T10:51:28.277Z,25.88
2023-01-19T10:54:31.622Z,34.00
2023-01-19T10:57:37.124Z,31.05
2023-01-19T11:00:41.143Z,29.05
2023-01-19T11:03:43.590Z,26.55
2023-01-19T11:06:47.544Z,28.30
2023-01-19T11:09:50.529Z,34.63
2023-01-19T11:13:04.610Z,40.53
2023-01-19T11:16:12.481Z,39.58
2023-01-19T11:19:29.433Z,28.80
2023-01-19T11:22:33.605Z,29.02
2023-01-19T11:25:36.726Z,35.90
2023-01-19T11:28:42.493Z,20.40
2023-01-19T11:31:47.039Z,32.13
2023-01-19T11:34:49.870Z,31.77
2023-01-19T11:38:05.669Z,34.17
2023-01-19T11:41:14.938Z,28.95
2023-01-19T11:44:20.405Z,27.13
2023-01-19T11:47:25.819Z,27.88
2023-01-19T11:50:31.664Z,25.25
2023-01-19T11:53:36.099Z,23.33
2023-01-19T11:56:38.473Z,28.67
2023-01-19T11:59:41.035Z,27.90
2023-01-19T12:02:45.099Z,23.48
2023-01-19T12:05:49.435Z,23.80
2023-01-19T12:08:55.693Z,27.23
2023-01-19T12:12:03.686Z,20.38
2023-01-19T12:15:09.106Z,26.08
2023-01-19T12:18:16.372Z,24.02
2023-01-19T12:21:19.499Z,26.75
2023-01-19T12:24:29.203Z,27.15
2023-01-19T12:27:38.516Z,23.00
2023-01-19T12:30:41.148Z,26.60
2023-01-19T12:33:43.551Z,23.63
2023-01-19T12:36:45.855Z,21.05
2023-01-19T12:39:49.648Z,27.20
2023-01-19T12:42:58.287Z,25.13
2023-01-19T12:46:00.783Z,26.50
2023-01-19T12:49:05.339Z,30.70
2023-01-19T12:52:22.190Z,18.70
2023-01-19T12:55:27.827Z,24.45
2023-01-19T12:58:30.316Z,19.45
2023-01-19T13:01:32.706Z,21.60
2023-01-19T13:04:35.040Z,29.90
2023-01-19T13:08:13.752Z,23.25
2023-01-19T13:11:19.837Z,21.45
2023-01-19T13:14:35.693Z,23.85
2023-01-19T13:17:49.062Z,25.95
2023-01-19T13:20:56.246Z,20.33
2023-01-19T13:23:59.856Z,19.90
2023-01-19T13:27:05.160Z,25.70
2023-01-19T13:30:12.099Z,24.20
2023-01-19T13:33:19.296Z,21.85
2023-01-19T13:36:26.566Z,20.80
2023-01-19T13:39:30.717Z,26.60
2023-01-19T13:42:36.300Z,25.15
2023-01-19T13:45:39.984Z,23.17
2023-01-19T13:48:52.956Z,21.33
2023-01-19T13:52:06.059Z,19.40
2023-01-19T13:55:14.233Z,27.17
2023-01-19T13:58:24.405Z,19.58
2023-01-19T14:01:29.345Z,20.52
2023-01-19T14:04:33.707Z,20.67
2023-01-19T14:07:36.144Z,28.88
2023-01-19T14:10:39.882Z,22.13
2023-01-19T14:13:44.795Z,19.30
2023-01-19T14:16:47.248Z,17.45
2023-01-19T14:19:50.166Z,17.25
2023-01-19T14:22:52.814Z,19.08
2023-01-19T14:25:55.062Z,24.42
2023-01-19T14:28:58.803Z,19.88
2023-01-19T14:32:13.771Z,19.80
2023-01-19T14:35:24.748Z,21.73
2023-01-19T14:38:27.074Z,16.60
2023-01-19T14:41:36.182Z,19.27
2023-01-19T14:44:40.089Z,22.67
2023-01-19T14:47:43.738Z,21.63
2023-01-19T14:51:02.005Z,22.48
2023-01-19T14:54:05.315Z,19.33
2023-01-19T14:57:11.219Z,18.13
2023-01-19T15:00:18.779Z,16.60
2023-01-19T15:03:23.361Z,19.27
2023-01-19T15:06:27.301Z,17.38
2023-01-19T15:09:29.679Z,19.63
2023-01-19T15:12:32.131Z,19.35
2023-01-19T15:15:36.830Z,20.05
2023-01-19T15:18:39.167Z,16.30
2023-01-19T15:21:42.237Z,14.57
2023-01-19T15:24:44.573Z,16.85
2023-01-19T15:27:47.710Z,14.38
2023-01-19T15:30:53.793Z,18.42
2023-01-19T15:33:56.552Z,14.93
2023-01-19T15:36:59.897Z,15.73
2023-01-19T15:40:02.262Z,15.57
2023-01-19T15:43:04.595Z,20.17
2023-01-19T15:46:09.454Z,16.00
2023-01-19T15:49:11.819Z,18.98
2023-01-19T15:52:15.786Z,16.00
2023-01-19T15:55:20.497Z,13.43
2023-01-19T15:58:23.553Z,12.52
2023-01-19T16:01:32.340Z,12.23
2023-01-19T16:04:35.895Z,11.70
2023-01-19T16:07:38.308Z,11.88
2023-01-19T16:10:41.784Z,15.82
2023-01-19T16:13:45.409Z,14.50
2023-01-19T16:16:49.206Z,15.20
2023-01-19T16:19:51.521Z,15.10
2023-01-19T16:22:56.518Z,12.65
2023-01-19T16:26:07.652Z,10.95
2023-01-19T16:29:10.911Z,10.10
2023-01-19T16:32:15.651Z,11.40
2023-01-19T16:35:19.575Z,16.08
2023-01-19T16:38:22.210Z,15.07
2023-01-19T16:41:24.515Z,19.05
2023-01-19T16:44:27.071Z,14.35
2023-01-19T16:47:31.331Z,13.48
2023-01-19T16:50:33.680Z,17.02
2023-01-19T16:53:35.973Z,11.73
2023-01-19T16:56:38.380Z,9.77
2023-01-19T16:59:41.392Z,16.42
2023-01-19T17:02:45.086Z,15.32
2023-01-19T17:05:51.059Z,11.52
2023-01-19T17:08:53.685Z,15.25
2023-01-19T17:11:56.080Z,7.20
2023-01-19T17:14:58.451Z,12.65
2023-01-19T17:18:02.161Z,13.27
2023-01-19T17:21:06.438Z,16.40
2023-01-19T17:24:09.000Z,8.60
2023-01-19T17:27:11.376Z,5.85
2023-01-19T17:30:14.449Z,8.65
2023-01-19T17:33:18.333Z,14.50
2023-01-19T17:36:22.932Z,12.15
2023-01-19T17:39:25.194Z,11.23
2023-01-19T17:42:27.568Z,12.38
2023-01-19T17:45:29.998Z,7.07
2023-01-19T17:48:33.956Z,12.52
2023-01-19T17:51:36.497Z,10.80
2023-01-19T17:54:39.229Z,11.57
2023-01-19T17:57:41.719Z,7.75
2023-01-19T18:00:43.961Z,10.50
2023-01-19T18:03:47.867Z,7.75
2023-01-19T18:06:50.351Z,9.15
2023-01-19T18:10:03.635Z,7.70
2023-01-19T18:13:05.973Z,9.45
2023-01-19T18:16:10.851Z,6.88
2023-01-19T18:19:14.633Z,7.35
2023-01-19T18:22:17.343Z,6.05
2023-01-19T18:25:19.757Z,7.50
2023-01-19T18:28:22.051Z,7.95
2023-01-19T18:31:25.334Z,7.25
2023-01-19T18:34:29.136Z,8.13
2023-01-19T18:37:31.662Z,7.88
2023-01-19T18:40:33.998Z,10.82
2023-01-19T18:43:36.488Z,7.45
2023-01-19T18:46:39.125Z,10.50
2023-01-19T18:49:42.833Z,9.63
2023-01-19T18:52:46.350Z,19.38
2023-01-19T18:55:52.416Z,20.60
2023-01-19T18:58:55.098Z,16.48
2023-01-19T19:02:01.238Z,11.75
2023-01-19T19:05:05.588Z,10.85
2023-01-19T19:08:07.979Z,12.60
2023-01-19T19:11:12.669Z,16.55
2023-01-19T19:14:16.262Z,12.80
2023-01-19T19:17:18.730Z,13.55
2023-01-19T19:20:23.358Z,11.98
2023-01-19T19:23:25.616Z,10.05
2023-01-19T19:26:28.330Z,14.85
2023-01-19T19:29:30.715Z,11.93
2023-01-19T19:32:33.073Z,9.85
2023-01-19T19:35:36.735Z,9.13
2023-01-19T19:38:41.128Z,8.70
2023-01-19T19:41:43.515Z,12.88
2023-01-19T19:44:45.798Z,11.80
2023-01-19T19:47:48.103Z,12.73
2023-01-19T19:50:51.740Z,12.27
2023-01-19T19:53:55.265Z,18.02
2023-01-19T19:56:57.583Z,14.25
2023-01-19T19:59:59.901Z,11.75
2023-01-19T20:03:04.346Z,11.82
2023-01-19T20:06:09.504Z,13.40
2023-01-19T20:09:16.066Z,12.90
2023-01-19T20:12:18.618Z,15.48
2023-01-19T20:15:20.884Z,22.80
2023-01-19T20:18:23.140Z,11.13
2023-01-19T20:21:28.421Z,14.98
2023-01-19T20:24:30.682Z,14.73
2023-01-19T20:27:33.976Z,20.27
2023-01-19T20:30:36.272Z,12.48
2023-01-19T20:33:38.622Z,13.00
2023-01-19T20:36:43.856Z,18.77
2023-01-19T20:39:46.225Z,13.32
2023-01-19T20:42:48.700Z,11.45
2023-01-19T20:45:52.576Z,19.30
2023-01-19T20:48:54.959Z,13.20
2023-01-19T20:51:58.667Z,18.95
2023-01-19T20:55:01.013Z,11.98
2023-01-19T20:58:03.413Z,12.07
2023-01-19T21:01:12.512Z,12.13
2023-01-19T21:04:15.889Z,11.40
2023-01-19T21:07:19.549Z,18.02
2023-01-19T21:10:22.191Z,13.95
2023-01-19T21:13:24.903Z,17.08
2023-01-19T21:16:29.664Z,15.65
2023-01-19T21:19:32.055Z,19.98
2023-01-19T21:22:35.704Z,15.75
2023-01-19T21:25:38.308Z,19.17
2023-01-19T21:28:40.769Z,18.00
2023-01-19T21:31:43.256Z,15.43
2023-01-19T21:34:45.609Z,11.27
2023-01-19T21:37:49.381Z,18.17
2023-01-19T21:40:51.729Z,15.48
2023-01-19T21:43:54.337Z,16.25
2023-01-19T21:46:57.451Z,14.88
2023-01-19T21:50:01.363Z,18.10
2023-01-19T21:53:11.111Z,16.88
2023-01-19T21:56:13.524Z,11.07
2023-01-19T21:59:16.043Z,15.88
2023-01-19T22:02:33.369Z,15.57
2023-01-19T22:05:40.081Z,15.40
2023-01-19T22:08:44.822Z,13.02
2023-01-19T22:11:47.202Z,14.50
2023-01-19T22:14:49.463Z,15.63
2023-01-19T22:17:51.734Z,14.95
2023-01-19T22:20:53.997Z,14.38
2023-01-19T22:23:59.069Z,15.95
2023-01-19T22:27:01.405Z,14.32
2023-01-19T22:30:04.173Z,16.00
2023-01-19T22:33:06.764Z,16.27
2023-01-19T22:36:10.668Z,19.58
2023-01-19T22:39:14.420Z,14.43
2023-01-19T22:42:16.649Z,14.30
2023-01-19T22:45:19.041Z,13.88
2023-01-19T22:48:22.270Z,17.02
2023-01-19T22:51:26.189Z,12.63
2023-01-19T22:54:30.233Z,24.30
2023-01-19T22:57:35.774Z,26.40
2023-01-19T23:00:38.007Z,18.30
2023-01-19T23:03:40.583Z,17.30
2023-01-19T23:06:43.591Z,15.82
2023-01-19T23:09:47.255Z,17.17
2023-01-19T23:12:49.600Z,13.45
2023-01-19T23:15:51.917Z,17.48
2023-01-19T23:18:55.411Z,19.40
2023-01-19T23:21:57.660Z,15.25
2023-01-19T23:25:01.332Z,18.85
2023-01-19T23:28:03.718Z,19.85
2023-01-19T23:31:16.334Z,17.75
2023-01-19T23:34:18.684Z,20.05
2023-01-19T23:37:21.052Z,20.92
2023-01-19T23:40:24.603Z,18.08
2023-01-19T23:43:26.839Z,18.70
2023-01-19T23:46:29.407Z,18.35
2023-01-19T23:49:31.742Z,17.85
2023-01-19T23:52:34.039Z,20.17
2023-01-19T23:55:38.203Z,25.85
2023-01-19T23:58:40.853Z,21.42
